Stella Prima — PHEA — position and weather

sailwx.info

Track history (hours):
 
Tides and Currents Weather Stations Pressure Air Temp Water Temp Dewpoint Dewpoint Depression Visibility Wind Speed Wind Dir Waves Ship Positions

Stella Prima

Last reported at 2016-Jul-25 17:33 UTC. Time now 2016-Jul-25 17:53 UTC.
Position N 38°30' W 008°55'.

Length 100 m; beam 21 m.

Type: Cargo ship. MMSI: 246460000.

Date/timePositionNaut miles runAvg speedWind from/ knotsBaromVisibWave heightAir tempDewpointWater temp
2016-Jul-25 17:33N 38°30' W 008°55'8 8.2
2016-Jul-25 16:33N 38°23' W 009°01'4 4.3
2016-Jul-25 15:33N 38°23' W 009°06'8 7.9
2016-Jul-25 14:33N 38°19' W 009°15'8 8.1
2016-Jul-25 13:33N 38°20' W 009°25'1414.1
2016-Jul-25 12:33N 38°21' W 009°43'1414.3
2016-Jul-25 11:33N 38°21' W 010°01'1414.2
2016-Jul-25 10:33N 38°23' W 010°20'  
2016-Jul-23 04:18N 39°17' W 023°26'1012.8
2016-Jul-23 03:30N 39°17' W 023°39'1213.0
2016-Jul-23 02:33N 39°17' W 023°55'1312.8
2016-Jul-23 01:32N 39°18' W 024°12'1612.7
2016-Jul-23 00:18N 39°18' W 024°32'912.5
2016-Jul-22 23:33N 39°19' W 024°44'1612.2
2016-Jul-22 22:12N 39°19' W 025°05'1012.0
2016-Jul-22 21:24N 39°19' W 025°18'1111.9
2016-Jul-22 20:29N 39°19' W 025°32'7612.9
2016-Jul-22 14:33N 39°20' W 027°10'1413.6
2016-Jul-22 13:33N 39°20' W 027°28'1312.6
2016-Jul-22 12:33N 39°20' W 027°44'1212.3
2016-Jul-22 11:34N 39°19' W 028°00'1212.3
2016-Jul-22 10:33N 39°16' W 028°15'1212.1
2016-Jul-22 09:33N 39°13' W 028°31'1212.4
2016-Jul-22 08:33N 39°09' W 028°46'1313.1
2016-Jul-22 07:33N 39°06' W 029°02'2713.3
2016-Jul-22 05:34N 39°00' W 029°36'1313.2
2016-Jul-22 04:33N 38°56' W 029°52'1313.2
2016-Jul-22 03:33N 38°53' W 030°08'1413.1
2016-Jul-22 02:31N 38°49' W 030°25'1712.8
2016-Jul-22 01:13N 38°45' W 030°46'  
Track history (hours):
 
Tides and Currents Weather Stations Pressure Air Temp Water Temp Dewpoint Dewpoint Depression Visibility Wind Speed Wind Dir Waves Ship Positions

Stella Prima

Last reported at 2016-Jul-25 17:33 UTC. Time now 2016-Jul-25 17:53 UTC.
Position N 38°30' W 008°55'.

Length 100 m; beam 21 m.

Type: Cargo ship. MMSI: 246460000.

Date/timePositionNaut miles runAvg speedWind from/ knotsBaromVisibWave heightAir tempDewpointWater temp
2016-Jul-25 17:33N 38°30' W 008°55'8 8.2
2016-Jul-25 16:33N 38°23' W 009°01'4 4.3
2016-Jul-25 15:33N 38°23' W 009°06'8 7.9
2016-Jul-25 14:33N 38°19' W 009°15'8 8.1
2016-Jul-25 13:33N 38°20' W 009°25'1414.1
2016-Jul-25 12:33N 38°21' W 009°43'1414.3
2016-Jul-25 11:33N 38°21' W 010°01'1414.2
2016-Jul-25 10:33N 38°23' W 010°20'  
2016-Jul-23 04:18N 39°17' W 023°26'1012.8
2016-Jul-23 03:30N 39°17' W 023°39'1213.0
2016-Jul-23 02:33N 39°17' W 023°55'1312.8
2016-Jul-23 01:32N 39°18' W 024°12'1612.7
2016-Jul-23 00:18N 39°18' W 024°32'912.5
2016-Jul-22 23:33N 39°19' W 024°44'1612.2
2016-Jul-22 22:12N 39°19' W 025°05'1012.0
2016-Jul-22 21:24N 39°19' W 025°18'1111.9
2016-Jul-22 20:29N 39°19' W 025°32'7612.9
2016-Jul-22 14:33N 39°20' W 027°10'1413.6
2016-Jul-22 13:33N 39°20' W 027°28'1312.6
2016-Jul-22 12:33N 39°20' W 027°44'1212.3
2016-Jul-22 11:34N 39°19' W 028°00'1212.3
2016-Jul-22 10:33N 39°16' W 028°15'1212.1
2016-Jul-22 09:33N 39°13' W 028°31'1212.4
2016-Jul-22 08:33N 39°09' W 028°46'1313.1
2016-Jul-22 07:33N 39°06' W 029°02'2713.3
2016-Jul-22 05:34N 39°00' W 029°36'1313.2
2016-Jul-22 04:33N 38°56' W 029°52'1313.2
2016-Jul-22 03:33N 38°53' W 030°08'1413.1
2016-Jul-22 02:31N 38°49' W 030°25'1712.8
2016-Jul-22 01:13N 38°45' W 030°46'  

Dump ship's entire track history